createdAt,value
2022-08-10T00:00:51.568Z,4.52
2022-08-10T00:01:54.553Z,5.13
2022-08-10T00:03:00.575Z,4.59
2022-08-10T00:04:02.896Z,4.80
2022-08-10T00:05:05.483Z,4.89
2022-08-10T00:06:07.311Z,6.02
2022-08-10T00:07:09.025Z,5.58
2022-08-10T00:08:10.731Z,5.82
2022-08-10T00:09:12.498Z,5.62
2022-08-10T00:10:16.363Z,5.75
2022-08-10T00:11:18.196Z,5.75
2022-08-10T00:12:20.162Z,5.81
2022-08-10T00:13:23.343Z,6.23
2022-08-10T00:14:25.040Z,5.77
2022-08-10T00:15:53.032Z,5.86
2022-08-10T00:16:49.165Z,5.84
2022-08-10T00:17:50.805Z,5.88
2022-08-10T00:18:52.449Z,5.72
2022-08-10T00:20:04.078Z,5.61
2022-08-10T00:21:10.801Z,5.47
2022-08-10T00:22:12.483Z,5.58
2022-08-10T00:23:18.975Z,5.36
2022-08-10T00:24:20.633Z,5.87
2022-08-10T00:25:22.306Z,5.46
2022-08-10T00:26:24.000Z,5.09
2022-08-10T00:28:00.840Z,5.87
2022-08-10T00:28:48.733Z,5.92
2022-08-10T00:29:50.595Z,6.42
2022-08-10T00:30:52.647Z,6.88
2022-08-10T00:31:57.679Z,6.48
2022-08-10T00:33:01.074Z,6.25
2022-08-10T00:34:02.814Z,5.93
2022-08-10T00:35:05.184Z,5.60
2022-08-10T00:36:07.069Z,5.56
2022-08-10T00:37:08.904Z,5.69
2022-08-10T00:38:10.741Z,5.43
2022-08-10T00:39:15.947Z,5.85
2022-08-10T00:40:18.386Z,5.36
2022-08-10T00:41:37.081Z,5.51
2022-08-10T00:42:38.782Z,5.53
2022-08-10T00:43:40.492Z,5.89
2022-08-10T00:44:47.827Z,5.60
2022-08-10T00:45:59.362Z,5.59
2022-08-10T00:47:02.160Z,6.27
2022-08-10T00:48:04.060Z,6.55
2022-08-10T00:49:06.022Z,6.73
2022-08-10T00:50:09.207Z,6.85
2022-08-10T00:51:11.998Z,7.14
2022-08-10T00:52:16.786Z,7.56
2022-08-10T00:53:18.624Z,6.90
2022-08-10T00:54:24.076Z,6.39
2022-08-10T00:55:27.486Z,6.34
2022-08-10T00:57:14.353Z,6.80
2022-08-10T00:57:55.343Z,6.51
2022-08-10T00:58:57.456Z,6.53
2022-08-10T01:00:00.452Z,6.28
2022-08-10T01:01:02.911Z,5.93
2022-08-10T01:02:08.314Z,6.25
2022-08-10T01:03:13.604Z,6.52
2022-08-10T01:04:40.206Z,7.20
2022-08-10T01:05:52.160Z,7.15
2022-08-10T01:07:22.104Z,6.72
2022-08-10T01:08:40.330Z,6.34
2022-08-10T01:09:55.543Z,6.50
2022-08-10T01:12:28.709Z,7.27
2022-08-10T01:13:20.677Z,6.85
2022-08-10T01:14:35.247Z,6.05
2022-08-10T01:15:51.320Z,6.53
2022-08-10T01:17:03.020Z,7.50
2022-08-10T01:18:08.084Z,7.79
2022-08-10T01:19:42.734Z,6.67
2022-08-10T01:21:14.652Z,7.14
2022-08-10T01:22:29.124Z,6.44
2022-08-10T01:23:45.920Z,6.60
2022-08-10T01:24:56.459Z,7.24
2022-08-10T01:26:12.479Z,6.75
2022-08-10T01:27:34.346Z,7.34
2022-08-10T01:29:03.594Z,7.29
2022-08-10T01:30:09.347Z,6.75
2022-08-10T01:31:20.077Z,6.54
2022-08-10T01:32:31.419Z,6.29
2022-08-10T01:34:02.389Z,6.47
2022-08-10T01:35:33.776Z,6.29
2022-08-10T01:36:45.020Z,6.54
2022-08-10T01:38:03.364Z,6.56
2022-08-10T01:39:07.949Z,6.80
2022-08-10T01:40:13.785Z,7.01
2022-08-10T01:41:46.137Z,6.73
2022-08-10T01:42:51.255Z,6.70
2022-08-10T01:44:07.044Z,7.02
2022-08-10T01:45:13.054Z,6.14
2022-08-10T01:46:17.110Z,6.23
2022-08-10T01:47:42.392Z,6.80
2022-08-10T01:48:51.998Z,6.36
2022-08-10T01:50:03.232Z,6.41
2022-08-10T01:51:08.205Z,5.98
2022-08-10T01:52:10.519Z,6.70
2022-08-10T01:53:41.258Z,6.75
2022-08-10T01:54:45.671Z,7.12
2022-08-10T01:55:49.914Z,7.98
2022-08-10T01:56:57.030Z,7.99
2022-08-10T01:58:03.529Z,8.22
2022-08-10T01:59:15.626Z,8.63
2022-08-10T02:00:19.023Z,8.08
2022-08-10T02:01:25.723Z,7.59
2022-08-10T02:02:31.685Z,8.36
2022-08-10T02:04:04.684Z,8.02
2022-08-10T02:05:05.184Z,7.73
2022-08-10T02:06:12.624Z,7.49
2022-08-10T02:07:19.919Z,7.58
2022-08-10T02:08:24.874Z,7.32
2022-08-10T02:09:31.714Z,8.13
2022-08-10T02:10:37.557Z,8.21
2022-08-10T02:11:55.704Z,8.63
2022-08-10T02:13:04.076Z,8.76
2022-08-10T02:14:08.962Z,8.41
2022-08-10T02:15:16.571Z,8.63
2022-08-10T02:16:23.525Z,8.65
2022-08-10T02:17:59.563Z,8.80
2022-08-10T02:18:55.146Z,9.49
2022-08-10T02:20:03.407Z,8.87
2022-08-10T02:21:08.194Z,8.31
2022-08-10T02:22:45.927Z,8.49
2022-08-10T02:23:39.687Z,7.78
2022-08-10T02:24:45.210Z,7.78
2022-08-10T02:25:50.234Z,8.64
2022-08-10T02:26:59.734Z,8.51
2022-08-10T02:28:05.938Z,9.12
2022-08-10T02:29:11.603Z,9.09
2022-08-10T02:30:14.117Z,8.85
2022-08-10T02:31:23.340Z,8.15
2022-08-10T02:32:38.305Z,8.72
2022-08-10T02:33:57.439Z,8.97
2022-08-10T02:35:04.185Z,8.35
2022-08-10T02:36:11.926Z,8.30
2022-08-10T02:37:14.936Z,8.23
2022-08-10T02:38:23.352Z,8.25
2022-08-10T02:39:45.031Z,8.40
2022-08-10T02:42:18.242Z,7.98
2022-08-10T02:45:23.509Z,8.46
2022-08-10T02:45:23.852Z,8.75
2022-08-10T02:45:30.876Z,9.08
2022-08-10T02:46:41.866Z,8.40
2022-08-10T02:48:06.624Z,9.24
2022-08-10T02:49:18.586Z,8.70
2022-08-10T02:50:35.901Z,8.96
2022-08-10T02:52:06.407Z,8.40
2022-08-10T02:53:55.013Z,8.88
2022-08-10T02:55:17.722Z,9.40
2022-08-10T02:56:28.530Z,8.99
2022-08-10T02:57:38.761Z,8.42
2022-08-10T02:59:40.133Z,8.92
2022-08-10T03:00:50.792Z,8.52
2022-08-10T03:01:59.203Z,8.86
2022-08-10T03:03:05.722Z,8.75
2022-08-10T03:04:17.575Z,8.71
2022-08-10T03:05:20.313Z,8.61
2022-08-10T03:06:29.646Z,8.67
2022-08-10T03:07:43.479Z,8.64
2022-08-10T03:08:49.194Z,8.64
2022-08-10T03:09:54.787Z,8.33
2022-08-10T03:11:01.238Z,8.41
2022-08-10T03:12:37.427Z,8.24
2022-08-10T03:13:32.306Z,8.36
2022-08-10T03:14:37.403Z,7.92
2022-08-10T03:15:41.122Z,8.33
2022-08-10T03:16:46.179Z,8.19
2022-08-10T03:17:57.977Z,8.93
2022-08-10T03:19:04.460Z,8.25
2022-08-10T03:20:38.245Z,8.72
2022-08-10T03:21:31.739Z,7.66
2022-08-10T03:22:36.378Z,7.82
2022-08-10T03:23:41.289Z,8.03
2022-08-10T03:24:44.869Z,7.94
2022-08-10T03:25:52.589Z,8.03
2022-08-10T03:26:57.846Z,7.58
2022-08-10T03:28:01.107Z,7.80
2022-08-10T03:29:06.106Z,7.46
2022-08-10T03:30:27.405Z,7.74
2022-08-10T03:31:32.930Z,8.13
2022-08-10T03:32:36.641Z,7.78
2022-08-10T03:33:43.661Z,7.62
2022-08-10T03:34:46.103Z,8.24
2022-08-10T03:36:40.545Z,8.14
2022-08-10T03:37:10.499Z,8.03
2022-08-10T03:38:12.324Z,8.17
2022-08-10T03:39:14.470Z,8.18
2022-08-10T03:40:16.350Z,8.29
2022-08-10T03:41:24.933Z,8.77
2022-08-10T03:42:30.370Z,9.18
2022-08-10T03:43:34.082Z,8.55
2022-08-10T03:44:37.838Z,8.74
2022-08-10T03:45:55.136Z,8.58
2022-08-10T03:47:01.081Z,8.80
2022-08-10T03:48:05.600Z,9.11
2022-08-10T03:49:09.228Z,9.35
2022-08-10T03:50:28.092Z,9.12
2022-08-10T03:51:36.437Z,9.83
2022-08-10T03:52:39.351Z,9.23
2022-08-10T03:54:05.589Z,9.69
2022-08-10T03:55:04.122Z,9.39
2022-08-10T03:56:28.528Z,9.61
2022-08-10T03:57:30.139Z,10.43
2022-08-10T03:58:32.301Z,9.50
2022-08-10T03:59:36.209Z,9.87
2022-08-10T04:00:38.949Z,9.37
2022-08-10T04:02:46.664Z,10.25
2022-08-10T04:03:08.185Z,9.96
2022-08-10T04:04:11.806Z,9.65
2022-08-10T04:05:16.846Z,9.61
2022-08-10T04:06:18.774Z,9.65
2022-08-10T04:07:20.968Z,9.56
2022-08-10T04:08:22.934Z,10.01
2022-08-10T04:09:43.017Z,9.78
2022-08-10T04:10:52.162Z,9.45
2022-08-10T04:11:53.921Z,9.72
2022-08-10T04:12:56.302Z,8.80
2022-08-10T04:14:00.750Z,9.65
2022-08-10T04:15:02.863Z,9.19
2022-08-10T04:16:07.536Z,9.88
2022-08-10T04:17:13.834Z,9.45
2022-08-10T04:18:16.149Z,8.78
2022-08-10T04:19:19.639Z,9.52
2022-08-10T04:20:35.586Z,9.69
2022-08-10T04:21:43.047Z,9.04
2022-08-10T04:22:53.488Z,8.94
2022-08-10T04:24:00.904Z,9.37
2022-08-10T04:25:05.669Z,8.92
2022-08-10T04:26:07.791Z,8.93
2022-08-10T04:27:10.070Z,9.26
2022-08-10T04:28:12.868Z,9.03
2022-08-10T04:29:15.075Z,8.36
2022-08-10T04:30:17.612Z,8.71
2022-08-10T04:31:21.093Z,9.08
2022-08-10T04:32:25.079Z,9.50
2022-08-10T04:33:31.813Z,8.44
2022-08-10T04:34:35.434Z,8.87
2022-08-10T04:35:39.052Z,8.31
2022-08-10T04:36:42.339Z,9.10
2022-08-10T04:37:47.784Z,9.14
2022-08-10T04:38:51.579Z,8.37
2022-08-10T04:39:53.914Z,9.73
2022-08-10T04:40:56.950Z,8.77
2022-08-10T04:41:59.171Z,9.31
2022-08-10T04:43:10.879Z,9.62
2022-08-10T04:44:14.352Z,9.26
2022-08-10T04:45:16.414Z,10.02
2022-08-10T04:46:55.530Z,9.55
2022-08-10T04:48:00.366Z,10.21
2022-08-10T04:49:02.217Z,9.73
2022-08-10T04:50:07.498Z,10.34
2022-08-10T04:51:17.940Z,10.27
2022-08-10T04:52:21.250Z,10.01
2022-08-10T04:53:27.202Z,10.45
2022-08-10T04:54:29.823Z,10.56
2022-08-10T04:55:31.650Z,10.36
2022-08-10T04:56:36.318Z,10.37
2022-08-10T04:57:38.071Z,10.39
2022-08-10T04:58:39.844Z,9.98
2022-08-10T04:59:41.481Z,10.28
2022-08-10T05:00:43.276Z,10.10
2022-08-10T05:02:27.140Z,10.79
2022-08-10T05:03:06.829Z,11.06
2022-08-10T05:04:34.384Z,9.57
2022-08-10T05:05:30.361Z,10.69
2022-08-10T05:06:32.290Z,10.61
2022-08-10T05:07:53.931Z,10.26
2022-08-10T05:08:55.983Z,9.74
2022-08-10T05:10:04.039Z,10.33
2022-08-10T05:11:08.775Z,10.01
2022-08-10T05:12:10.590Z,9.48
2022-08-10T05:13:12.281Z,10.05
2022-08-10T05:14:14.035Z,9.83
2022-08-10T05:15:18.214Z,10.64
2022-08-10T05:16:31.587Z,11.17
2022-08-10T05:17:35.969Z,9.51
2022-08-10T05:18:37.710Z,10.09
2022-08-10T05:20:04.086Z,10.22
2022-08-10T05:21:01.125Z,10.08
2022-08-10T05:22:05.183Z,10.53
2022-08-10T05:23:07.439Z,10.35
2022-08-10T05:24:09.133Z,10.34
2022-08-10T05:25:14.122Z,9.81
2022-08-10T05:26:16.451Z,10.20
2022-08-10T05:27:18.086Z,9.41
2022-08-10T05:28:19.735Z,8.98
2022-08-10T05:29:25.444Z,8.55
2022-08-10T05:30:27.512Z,7.97
2022-08-10T05:31:29.716Z,7.95
2022-08-10T05:32:55.306Z,7.52
2022-08-10T05:33:54.743Z,8.57
2022-08-10T05:34:56.510Z,8.56
2022-08-10T05:35:59.623Z,7.60
2022-08-10T05:37:02.462Z,7.95
2022-08-10T05:38:10.301Z,8.40
2022-08-10T05:39:16.134Z,8.37
2022-08-10T05:40:18.432Z,8.72
2022-08-10T05:41:20.605Z,9.27
2022-08-10T05:42:23.807Z,8.73
2022-08-10T05:43:25.926Z,8.80
2022-08-10T05:44:28.644Z,8.01
2022-08-10T05:45:30.482Z,7.70
2022-08-10T05:46:32.196Z,7.75
2022-08-10T05:48:54.829Z,7.93
2022-08-10T05:49:00.561Z,8.11
2022-08-10T05:50:03.678Z,8.18
2022-08-10T05:51:07.407Z,8.21
2022-08-10T05:52:09.420Z,8.44
2022-08-10T05:53:59.189Z,7.78
2022-08-10T05:54:34.364Z,7.62
2022-08-10T05:55:36.265Z,8.00
2022-08-10T05:56:55.133Z,8.54
2022-08-10T05:58:01.029Z,7.54
2022-08-10T05:59:02.869Z,7.77
2022-08-10T06:00:36.220Z,7.15
2022-08-10T06:01:39.133Z,7.67
2022-08-10T06:02:44.994Z,7.80
2022-08-10T06:03:54.093Z,7.31
2022-08-10T06:04:59.238Z,6.86
2022-08-10T06:06:04.195Z,6.79
2022-08-10T06:07:07.925Z,7.04
2022-08-10T06:08:20.535Z,6.66
2022-08-10T06:09:25.845Z,6.62
2022-08-10T06:10:32.096Z,7.72
2022-08-10T06:12:28.064Z,6.41
2022-08-10T06:13:27.035Z,6.68
2022-08-10T06:14:59.514Z,7.41
2022-08-10T06:16:09.018Z,6.72
2022-08-10T06:17:12.115Z,6.31
2022-08-10T06:18:15.462Z,6.54
2022-08-10T06:19:17.876Z,6.70
2022-08-10T06:20:19.712Z,6.69
2022-08-10T06:21:21.858Z,6.18
2022-08-10T06:22:25.588Z,6.80
2022-08-10T06:23:30.470Z,6.28
2022-08-10T06:25:04.571Z,6.12
2022-08-10T06:26:11.421Z,6.38
2022-08-10T06:27:15.614Z,6.06
2022-08-10T06:28:20.823Z,6.19
2022-08-10T06:29:24.738Z,6.73
2022-08-10T06:30:29.479Z,7.24
2022-08-10T06:31:47.655Z,6.62
2022-08-10T06:32:56.696Z,6.21
2022-08-10T06:34:01.406Z,6.94
2022-08-10T06:35:08.277Z,6.91
2022-08-10T06:36:12.489Z,7.30
2022-08-10T06:37:19.221Z,7.18
2022-08-10T06:38:26.616Z,6.97
2022-08-10T06:39:34.148Z,6.62
2022-08-10T06:40:43.422Z,6.27
2022-08-10T06:42:14.934Z,6.47
2022-08-10T06:43:18.569Z,5.95
2022-08-10T06:44:29.279Z,6.17
2022-08-10T06:45:41.275Z,5.92
2022-08-10T06:46:49.597Z,5.85
2022-08-10T06:48:02.344Z,5.76
2022-08-10T06:49:07.275Z,5.73
2022-08-10T06:50:55.985Z,6.04
2022-08-10T06:52:02.703Z,5.72
2022-08-10T06:53:12.537Z,6.06
2022-08-10T06:54:18.136Z,5.47
2022-08-10T06:55:39.838Z,5.42
2022-08-10T06:57:08.347Z,5.25
2022-08-10T06:58:13.128Z,4.45
2022-08-10T06:59:54.038Z,4.41
2022-08-10T07:00:57.072Z,5.39
2022-08-10T07:02:12.157Z,5.51
2022-08-10T07:03:18.935Z,5.29
2022-08-10T07:04:56.220Z,4.87
2022-08-10T07:06:02.114Z,4.56
2022-08-10T07:07:07.834Z,4.54
2022-08-10T07:08:12.532Z,4.67
2022-08-10T07:09:18.140Z,4.17
2022-08-10T07:10:22.689Z,3.86
2022-08-10T07:11:27.310Z,4.00
2022-08-10T07:12:34.392Z,4.33
2022-08-10T07:14:14.384Z,3.83
2022-08-10T07:15:03.485Z,4.48
2022-08-10T07:16:10.911Z,4.70
2022-08-10T07:17:16.737Z,4.72
2022-08-10T07:18:20.960Z,4.63
2022-08-10T07:19:25.508Z,4.45
2022-08-10T07:20:28.378Z,5.15
2022-08-10T07:21:32.562Z,4.62
2022-08-10T07:23:27.115Z,4.19
2022-08-10T07:24:00.981Z,4.38
2022-08-10T07:25:06.773Z,4.11
2022-08-10T07:26:09.933Z,3.89
2022-08-10T07:27:13.364Z,3.78
2022-08-10T07:28:17.828Z,3.40
2022-08-10T07:29:26.402Z,3.76
2022-08-10T07:30:46.054Z,3.76
2022-08-10T07:31:56.944Z,4.03
2022-08-10T07:33:02.239Z,3.65
2022-08-10T07:34:07.179Z,3.64
2022-08-10T07:35:13.531Z,3.45
2022-08-10T07:36:19.062Z,3.10
2022-08-10T07:37:25.037Z,3.01
2022-08-10T07:38:31.670Z,3.09
2022-08-10T07:40:02.669Z,3.12
2022-08-10T07:41:03.495Z,3.52
2022-08-10T07:42:09.997Z,3.29
2022-08-10T07:43:15.224Z,3.12
2022-08-10T07:44:19.393Z,2.92
2022-08-10T07:45:21.341Z,2.89
2022-08-10T07:46:28.238Z,2.43
2022-08-10T07:47:46.243Z,2.76
2022-08-10T07:49:16.803Z,3.18
2022-08-10T07:50:25.063Z,2.97
2022-08-10T07:51:31.128Z,2.69
2022-08-10T07:52:35.451Z,2.74
2022-08-10T07:53:43.754Z,2.77
2022-08-10T07:54:49.891Z,2.75
2022-08-10T07:56:03.554Z,2.58
2022-08-10T07:57:30.955Z,2.81
2022-08-10T07:58:51.881Z,3.03
2022-08-10T07:59:59.978Z,2.67
2022-08-10T08:01:01.829Z,2.89
2022-08-10T08:02:07.660Z,2.30
2022-08-10T08:03:13.330Z,2.47
2022-08-10T08:04:19.632Z,2.76
2022-08-10T08:05:29.932Z,2.50
2022-08-10T08:06:49.573Z,2.55
2022-08-10T08:07:53.899Z,2.52
2022-08-10T08:08:58.559Z,2.46
2022-08-10T08:10:03.001Z,2.36
2022-08-10T08:11:06.250Z,2.73
2022-08-10T08:12:11.066Z,2.51
2022-08-10T08:13:14.881Z,2.46
2022-08-10T08:14:19.085Z,2.37
2022-08-10T08:16:20.403Z,2.60
2022-08-10T08:16:51.646Z,2.43
2022-08-10T08:18:00.818Z,2.71
2022-08-10T08:19:26.431Z,2.43
2022-08-10T08:20:26.430Z,2.65
2022-08-10T08:24:07.380Z,2.28
2022-08-10T08:24:10.686Z,2.55
2022-08-10T08:24:30.487Z,2.29
2022-08-10T08:25:36.688Z,2.43
2022-08-10T08:26:39.231Z,2.41
2022-08-10T08:27:47.602Z,2.34
2022-08-10T08:28:51.108Z,2.26
2022-08-10T08:29:54.326Z,2.82
2022-08-10T08:30:58.894Z,2.59
2022-08-10T08:32:03.729Z,2.36
2022-08-10T08:33:09.757Z,2.48
2022-08-10T08:34:22.988Z,2.97
2022-08-10T08:35:26.766Z,2.63
2022-08-10T08:36:30.824Z,2.45
2022-08-10T08:38:31.781Z,2.77
2022-08-10T08:38:56.795Z,2.69
2022-08-10T08:39:58.689Z,2.64
2022-08-10T08:41:22.182Z,2.26
2022-08-10T08:42:42.575Z,2.31
2022-08-10T08:43:59.454Z,2.76
2022-08-10T08:45:23.329Z,2.74
2022-08-10T08:46:59.272Z,2.42
2022-08-10T08:48:11.408Z,2.87
2022-08-10T08:50:04.752Z,2.28
2022-08-10T08:51:01.738Z,2.55
2022-08-10T08:52:29.108Z,20.54
2022-08-10T08:54:07.931Z,20.04
2022-08-10T08:56:05.028Z,11.17
2022-08-10T08:57:22.929Z,3.93
2022-08-10T08:58:54.370Z,2.89
2022-08-10T09:00:14.425Z,2.97
2022-08-10T09:01:53.130Z,3.13
2022-08-10T09:03:28.430Z,2.98
2022-08-10T09:05:09.503Z,4.16
2022-08-10T09:06:45.776Z,2.74
2022-08-10T09:08:02.178Z,2.71
2022-08-10T09:09:35.574Z,2.76
2022-08-10T09:10:46.090Z,2.60
2022-08-10T09:12:08.838Z,2.45
2022-08-10T09:13:42.642Z,2.53
2022-08-10T09:15:05.884Z,2.50
2022-08-10T09:16:35.148Z,2.28
2022-08-10T09:17:59.850Z,2.61
2022-08-10T09:19:19.655Z,3.16
2022-08-10T09:20:45.807Z,2.62
2022-08-10T09:22:18.231Z,2.54
2022-08-10T09:24:20.205Z,2.58
2022-08-10T09:25:26.169Z,2.81
2022-08-10T09:26:42.948Z,2.72
2022-08-10T09:27:49.614Z,2.30
2022-08-10T09:29:12.302Z,2.39
2022-08-10T09:30:32.178Z,2.68
2022-08-10T09:32:55.002Z,2.58
2022-08-10T09:36:20.836Z,2.55
2022-08-10T09:36:24.065Z,2.38
2022-08-10T09:36:31.984Z,2.18
2022-08-10T09:38:01.937Z,2.18
2022-08-10T09:40:06.860Z,2.55
2022-08-10T09:41:16.350Z,2.62
2022-08-10T09:42:42.504Z,2.82
2022-08-10T09:44:01.799Z,2.33
2022-08-10T09:45:15.231Z,2.36
2022-08-10T09:46:46.908Z,2.30
2022-08-10T09:48:13.220Z,2.37
2022-08-10T09:49:54.829Z,2.32
2022-08-10T09:51:46.338Z,1.92
2022-08-10T09:53:10.956Z,2.05
2022-08-10T09:54:46.649Z,1.95
2022-08-10T09:56:29.735Z,1.80
2022-08-10T09:57:48.455Z,1.98
2022-08-10T09:59:27.262Z,1.74
2022-08-10T10:00:23.381Z,2.05
2022-08-10T10:02:03.457Z,1.79
2022-08-10T10:03:17.048Z,2.15
2022-08-10T10:04:33.244Z,1.66
2022-08-10T10:05:59.428Z,1.83
2022-08-10T10:07:10.599Z,1.56
2022-08-10T10:08:43.947Z,1.91
2022-08-10T10:10:07.660Z,1.66
2022-08-10T10:11:21.265Z,2.49
2022-08-10T10:13:09.246Z,2.44
2022-08-10T10:14:19.510Z,2.15
2022-08-10T10:15:33.788Z,2.09
2022-08-10T10:17:03.501Z,1.90
2022-08-10T10:18:19.901Z,1.54
2022-08-10T10:20:11.075Z,1.95
2022-08-10T10:21:54.748Z,1.71
2022-08-10T10:23:40.651Z,1.79
2022-08-10T10:24:52.734Z,1.61
2022-08-10T10:26:08.435Z,1.58
2022-08-10T10:27:47.987Z,1.47
2022-08-10T10:29:55.796Z,1.42
2022-08-10T10:31:16.822Z,1.77
2022-08-10T10:32:42.184Z,1.87
2022-08-10T10:34:02.189Z,1.82
2022-08-10T10:35:12.771Z,2.05
2022-08-10T10:36:17.745Z,2.31
2022-08-10T10:37:22.175Z,2.05
2022-08-10T10:38:47.203Z,2.23
2022-08-10T10:39:54.628Z,2.10
2022-08-10T10:41:15.057Z,1.82
2022-08-10T10:42:46.879Z,1.94
2022-08-10T10:44:27.483Z,1.84
2022-08-10T10:45:58.486Z,1.62
2022-08-10T10:47:26.152Z,1.72
2022-08-10T10:48:52.598Z,1.83
2022-08-10T10:50:22.536Z,1.76
2022-08-10T10:51:34.164Z,1.70
2022-08-10T10:53:03.105Z,1.92
2022-08-10T10:54:32.525Z,1.88
2022-08-10T10:56:14.312Z,1.59
2022-08-10T10:57:59.088Z,1.64
2022-08-10T10:59:53.533Z,1.81
2022-08-10T11:00:46.321Z,1.76
2022-08-10T11:02:01.075Z,2.28
2022-08-10T11:03:27.560Z,2.39
2022-08-10T11:05:03.232Z,2.23
2022-08-10T11:06:40.611Z,2.41
2022-08-10T11:07:54.929Z,2.36
2022-08-10T11:09:03.474Z,1.96
2022-08-10T11:10:32.824Z,2.11
2022-08-10T11:12:00.760Z,2.10
2022-08-10T11:14:24.501Z,1.47
2022-08-10T11:15:10.109Z,1.82
2022-08-10T11:16:28.815Z,1.91
2022-08-10T11:17:39.047Z,1.36
2022-08-10T11:19:13.581Z,1.64
2022-08-10T11:20:25.918Z,1.45
2022-08-10T11:21:54.731Z,1.38
2022-08-10T11:23:22.263Z,1.92
2022-08-10T11:24:56.400Z,2.00
2022-08-10T11:26:10.594Z,2.20
2022-08-10T11:27:37.797Z,1.96
2022-08-10T11:28:54.360Z,1.97
2022-08-10T11:30:03.645Z,1.69
2022-08-10T11:31:33.738Z,1.77
2022-08-10T11:32:50.902Z,1.75
2022-08-10T11:34:47.546Z,1.85
2022-08-10T11:36:01.437Z,1.94
2022-08-10T11:37:15.302Z,1.88
2022-08-10T11:39:13.490Z,1.82
2022-08-10T11:40:24.907Z,1.84
2022-08-10T11:42:12.553Z,1.68
2022-08-10T11:43:26.234Z,1.41
2022-08-10T11:45:02.681Z,1.28
2022-08-10T11:46:33.726Z,1.37
2022-08-10T11:47:52.665Z,1.43
2022-08-10T11:49:10.788Z,1.50
2022-08-10T11:50:32.331Z,1.51
2022-08-10T11:51:49.075Z,1.51
2022-08-10T11:53:09.908Z,1.28
2022-08-10T11:54:25.961Z,1.36
2022-08-10T11:55:32.927Z,1.15
2022-08-10T11:56:59.934Z,1.30
2022-08-10T11:58:31.120Z,1.43
2022-08-10T11:59:58.293Z,1.51
2022-08-10T12:01:07.038Z,1.41
2022-08-10T12:02:14.659Z,1.23
2022-08-10T12:03:19.449Z,1.44
2022-08-10T12:04:23.800Z,1.38
2022-08-10T12:05:51.638Z,1.40
2022-08-10T12:06:59.368Z,1.14
2022-08-10T12:08:54.807Z,1.19
2022-08-10T12:10:10.939Z,1.18
2022-08-10T12:10:52.064Z,0.98
2022-08-10T12:11:55.036Z,1.02
2022-08-10T12:13:15.377Z,1.06
2022-08-10T12:14:26.097Z,1.04
2022-08-10T12:15:40.712Z,0.98
2022-08-10T12:16:49.025Z,1.21
2022-08-10T12:17:57.564Z,0.92
2022-08-10T12:19:05.649Z,1.01
2022-08-10T12:20:09.628Z,1.07
2022-08-10T12:21:37.968Z,1.36
2022-08-10T12:22:57.426Z,1.04
2022-08-10T12:24:12.808Z,1.09
2022-08-10T12:25:57.630Z,0.96
2022-08-10T12:27:13.311Z,1.03
2022-08-10T12:28:49.284Z,0.94
2022-08-10T12:29:59.091Z,1.03
2022-08-10T12:31:03.665Z,1.11
2022-08-10T12:32:25.492Z,1.07
2022-08-10T12:34:02.566Z,0.90
2022-08-10T12:35:17.975Z,1.19
2022-08-10T12:36:32.345Z,1.23
2022-08-10T12:38:07.076Z,1.03
2022-08-10T12:39:28.228Z,1.08
2022-08-10T12:40:37.301Z,1.15
2022-08-10T12:41:57.076Z,0.93
2022-08-10T12:44:07.806Z,1.16
2022-08-10T12:44:41.513Z,1.16
2022-08-10T12:46:06.565Z,1.19
2022-08-10T12:47:22.610Z,1.33
2022-08-10T12:48:36.692Z,1.16
2022-08-10T12:50:23.779Z,1.17
2022-08-10T12:51:32.460Z,1.13
2022-08-10T12:52:50.668Z,1.09
2022-08-10T12:54:11.331Z,1.21
2022-08-10T12:55:14.657Z,1.04
2022-08-10T12:56:41.379Z,0.94
2022-08-10T12:57:43.909Z,1.04
2022-08-10T12:59:00.020Z,0.88
2022-08-10T13:00:06.558Z,0.98
2022-08-10T13:01:23.391Z,1.24
2022-08-10T13:02:29.942Z,1.09
2022-08-10T13:04:21.297Z,1.18
2022-08-10T13:05:02.437Z,1.11
2022-08-10T13:06:07.221Z,1.23
2022-08-10T13:07:10.677Z,1.19
2022-08-10T13:08:52.947Z,1.11
2022-08-10T13:10:05.461Z,1.14
2022-08-10T13:12:18.256Z,1.45
2022-08-10T13:12:40.566Z,1.15
2022-08-10T13:13:49.372Z,1.11
2022-08-10T13:14:59.771Z,1.05
2022-08-10T13:16:03.232Z,1.17
2022-08-10T13:17:08.046Z,1.33
2022-08-10T13:18:18.428Z,1.15
2022-08-10T13:19:22.644Z,1.01
2022-08-10T13:20:29.889Z,1.48
2022-08-10T13:21:37.773Z,1.18
2022-08-10T13:22:42.515Z,1.14
2022-08-10T13:24:04.126Z,1.22
2022-08-10T13:25:10.105Z,1.07
2022-08-10T13:26:17.658Z,1.13
2022-08-10T13:27:59.796Z,1.20
2022-08-10T13:28:55.042Z,1.18
2022-08-10T13:30:05.270Z,1.18
2022-08-10T13:31:16.998Z,1.29
2022-08-10T13:32:30.520Z,1.15
2022-08-10T13:34:40.944Z,1.23
2022-08-10T13:35:00.946Z,1.14
2022-08-10T13:36:04.105Z,1.22
2022-08-10T13:37:09.360Z,0.99
2022-08-10T13:38:20.241Z,1.47
2022-08-10T13:39:26.018Z,1.30
2022-08-10T13:40:31.222Z,1.52
2022-08-10T13:41:39.724Z,1.55
2022-08-10T13:42:42.293Z,1.48
2022-08-10T13:43:52.509Z,1.75
2022-08-10T13:44:58.629Z,1.77
2022-08-10T13:46:02.905Z,2.26
2022-08-10T13:47:06.951Z,1.84
2022-08-10T13:48:18.539Z,1.80
2022-08-10T13:49:21.896Z,1.96
2022-08-10T13:50:34.969Z,1.96
2022-08-10T13:51:53.823Z,1.95
2022-08-10T13:53:01.629Z,2.00
2022-08-10T13:54:07.511Z,2.04
2022-08-10T13:55:15.969Z,1.99
2022-08-10T13:56:21.409Z,1.98
2022-08-10T13:57:33.671Z,2.18
2022-08-10T13:58:41.509Z,2.02
2022-08-10T14:00:36.650Z,1.84
2022-08-10T14:01:17.296Z,1.73
2022-08-10T14:02:27.135Z,1.92
2022-08-10T14:03:37.723Z,2.22
2022-08-10T14:04:44.932Z,1.71
2022-08-10T14:05:52.533Z,1.54
2022-08-10T14:06:59.342Z,2.04
2022-08-10T14:08:04.314Z,1.83
2022-08-10T14:09:11.550Z,1.90
2022-08-10T14:10:16.656Z,2.02
2022-08-10T14:11:21.293Z,1.95
2022-08-10T14:12:33.485Z,1.76
2022-08-10T14:13:40.800Z,1.89
2022-08-10T14:14:45.225Z,2.10
2022-08-10T14:15:57.349Z,1.98
2022-08-10T14:17:01.811Z,1.81
2022-08-10T14:18:07.013Z,1.94
2022-08-10T14:19:16.569Z,2.25
2022-08-10T14:20:21.874Z,2.25
2022-08-10T14:21:24.528Z,2.11
2022-08-10T14:22:33.804Z,2.20
2022-08-10T14:23:42.528Z,2.03
2022-08-10T14:25:06.541Z,2.28
2022-08-10T14:26:11.073Z,2.13
2022-08-10T14:27:22.719Z,2.35
2022-08-10T14:28:34.257Z,2.08
2022-08-10T14:29:49.298Z,2.29
2022-08-10T14:31:11.789Z,2.12
2022-08-10T14:32:18.593Z,2.19
2022-08-10T14:33:24.467Z,2.15
2022-08-10T14:36:16.406Z,2.13
2022-08-10T14:36:18.995Z,2.26
2022-08-10T14:37:38.052Z,2.33
2022-08-10T14:38:45.125Z,2.38
2022-08-10T14:39:58.639Z,2.40
2022-08-10T14:41:04.792Z,2.33
2022-08-10T14:42:26.855Z,2.58
2022-08-10T14:43:41.328Z,2.33
2022-08-10T14:44:55.454Z,2.33
2022-08-10T14:46:04.078Z,2.46
2022-08-10T14:47:52.275Z,2.66
2022-08-10T14:48:39.820Z,2.96
2022-08-10T14:49:58.218Z,2.30
2022-08-10T14:51:03.020Z,2.45
2022-08-10T14:52:06.424Z,2.30
2022-08-10T14:53:15.368Z,2.40
2022-08-10T14:54:23.464Z,2.27
2022-08-10T14:55:29.116Z,2.58
2022-08-10T14:56:33.680Z,2.36
2022-08-10T14:58:19.292Z,2.35
2022-08-10T14:59:07.622Z,2.56
2022-08-10T15:00:29.444Z,2.52
2022-08-10T15:02:00.623Z,2.47
2022-08-10T15:03:11.150Z,2.53
2022-08-10T15:04:32.902Z,2.40
2022-08-10T15:05:39.583Z,2.45
2022-08-10T15:06:59.787Z,2.52
2022-08-10T15:08:03.509Z,2.51
2022-08-10T15:09:19.765Z,2.61
2022-08-10T15:10:24.264Z,2.77
2022-08-10T15:12:15.514Z,3.08
2022-08-10T15:12:58.720Z,2.85
2022-08-10T15:14:38.739Z,2.98
2022-08-10T15:15:28.997Z,2.78
2022-08-10T15:16:34.264Z,3.15
2022-08-10T15:17:39.630Z,2.83
2022-08-10T15:18:58.171Z,2.99
2022-08-10T15:20:13.481Z,2.73
2022-08-10T15:21:17.817Z,2.95
2022-08-10T15:22:37.118Z,2.37
2022-08-10T15:24:05.123Z,2.89
2022-08-10T15:25:18.022Z,2.73
2022-08-10T15:26:27.519Z,2.90
2022-08-10T15:27:53.390Z,2.77
2022-08-10T15:29:23.634Z,2.86
2022-08-10T15:30:31.373Z,2.75
2022-08-10T15:31:56.247Z,2.72
2022-08-10T15:34:02.606Z,2.87
2022-08-10T15:35:06.146Z,2.80
2022-08-10T15:36:32.972Z,3.16
2022-08-10T15:37:39.892Z,2.70
2022-08-10T15:38:46.343Z,2.48
2022-08-10T15:40:24.959Z,2.73
2022-08-10T15:41:21.167Z,2.68
2022-08-10T15:42:58.449Z,2.51
2022-08-10T15:44:00.324Z,2.74
2022-08-10T15:45:03.377Z,2.86
2022-08-10T15:46:33.042Z,2.77
2022-08-10T15:47:50.113Z,2.66
2022-08-10T15:49:01.440Z,3.02
2022-08-10T15:50:13.795Z,2.84
2022-08-10T15:51:53.410Z,2.50
2022-08-10T15:53:02.176Z,2.47
2022-08-10T15:54:12.205Z,2.84
2022-08-10T15:55:43.917Z,2.45
2022-08-10T15:56:46.060Z,2.51
2022-08-10T15:58:05.629Z,2.61
2022-08-10T15:59:33.453Z,2.93
2022-08-10T16:00:43.933Z,2.61
2022-08-10T16:02:15.699Z,2.52
2022-08-10T16:03:35.507Z,2.59
2022-08-10T16:05:09.782Z,2.84
2022-08-10T16:06:38.342Z,2.83
2022-08-10T16:07:57.770Z,2.42
2022-08-10T16:10:22.466Z,2.66
2022-08-10T16:10:43.804Z,2.68
2022-08-10T16:12:13.093Z,2.56
2022-08-10T16:13:59.417Z,2.28
2022-08-10T16:14:46.108Z,2.38
2022-08-10T16:15:58.590Z,2.21